createdAt,value
2022-08-31T00:00:38.628Z,24.20
2022-08-31T00:03:25.223Z,24.17
2022-08-31T00:05:58.496Z,24.15
2022-08-31T00:08:28.174Z,24.16
2022-08-31T00:10:56.835Z,24.15
2022-08-31T00:13:28.499Z,24.15
2022-08-31T00:15:59.679Z,24.15
2022-08-31T00:18:28.174Z,24.15
2022-08-31T00:20:56.605Z,24.16
2022-08-31T00:23:28.123Z,24.16
2022-08-31T00:25:56.662Z,24.18
2022-08-31T00:28:25.384Z,24.18
2022-08-31T00:30:53.940Z,24.18
2022-08-31T00:33:23.747Z,24.19
2022-08-31T00:35:52.403Z,24.19
2022-08-31T00:38:23.302Z,24.19
2022-08-31T00:40:51.841Z,24.17
2022-08-31T00:43:46.088Z,24.11
2022-08-31T00:46:19.139Z,24.13
2022-08-31T00:48:58.839Z,24.11
2022-08-31T00:51:29.176Z,24.12
2022-08-31T00:53:58.505Z,24.11
2022-08-31T00:56:28.165Z,24.08
2022-08-31T00:58:56.715Z,24.07
2022-08-31T01:01:25.726Z,24.05
2022-08-31T01:03:56.365Z,24.03
2022-08-31T01:06:25.942Z,24.03
2022-08-31T01:08:57.212Z,24.01
2022-08-31T01:11:25.899Z,23.99
2022-08-31T01:13:54.409Z,23.98
2022-08-31T01:16:29.395Z,23.95
2022-08-31T01:19:02.878Z,23.93
2022-08-31T01:21:38.998Z,23.89
2022-08-31T01:24:09.774Z,23.88
2022-08-31T01:26:39.875Z,23.85
2022-08-31T01:29:09.536Z,23.83
2022-08-31T01:31:42.480Z,23.81
2022-08-31T01:34:11.718Z,23.81
2022-08-31T01:36:43.845Z,23.78
2022-08-31T01:39:13.736Z,23.77
2022-08-31T01:41:44.203Z,23.76
2022-08-31T01:44:14.433Z,23.73
2022-08-31T01:46:43.961Z,23.72
2022-08-31T01:49:13.109Z,23.69
2022-08-31T01:51:41.579Z,23.67
2022-08-31T01:54:10.699Z,23.65
2022-08-31T01:56:43.510Z,23.61
2022-08-31T01:59:15.422Z,23.60
2022-08-31T02:01:47.800Z,23.58
2022-08-31T02:04:18.815Z,23.54
2022-08-31T02:06:52.125Z,23.51
2022-08-31T02:09:21.689Z,23.49
2022-08-31T02:11:51.864Z,23.46
2022-08-31T02:14:21.262Z,23.45
2022-08-31T02:16:50.690Z,23.44
2022-08-31T02:19:19.688Z,23.43
2022-08-31T02:21:48.157Z,23.41
2022-08-31T02:24:16.749Z,23.40
2022-08-31T02:26:45.471Z,23.39
2022-08-31T02:29:15.564Z,23.38
2022-08-31T02:31:43.950Z,23.37
2022-08-31T02:34:12.445Z,23.37
2022-08-31T02:36:42.985Z,23.36
2022-08-31T02:39:11.976Z,23.35
2022-08-31T02:41:42.886Z,23.34
2022-08-31T02:44:11.390Z,23.32
2022-08-31T02:46:41.261Z,23.32
2022-08-31T02:49:09.731Z,23.31
2022-08-31T02:51:42.630Z,23.31
2022-08-31T02:54:11.660Z,23.30
2022-08-31T02:56:40.083Z,23.31
2022-08-31T02:59:08.965Z,23.30
2022-08-31T03:01:39.029Z,23.30
2022-08-31T03:04:09.067Z,23.29
2022-08-31T03:06:37.559Z,23.30
2022-08-31T03:09:06.144Z,23.30
2022-08-31T03:11:34.822Z,23.30
2022-08-31T03:14:03.270Z,23.29
2022-08-31T03:16:32.832Z,23.29
2022-08-31T03:19:01.452Z,23.29
2022-08-31T03:21:31.298Z,23.30
2022-08-31T03:23:59.703Z,23.31
2022-08-31T03:26:28.229Z,23.30
2022-08-31T03:28:56.973Z,23.30
2022-08-31T03:31:26.229Z,23.30
2022-08-31T03:33:54.656Z,23.30
2022-08-31T03:36:23.073Z,23.30
2022-08-31T03:38:52.838Z,23.31
2022-08-31T03:41:25.882Z,23.29
2022-08-31T03:43:55.335Z,23.29
2022-08-31T03:46:24.538Z,23.30
2022-08-31T03:48:54.737Z,23.29
2022-08-31T03:51:23.161Z,23.29
2022-08-31T03:53:53.015Z,23.29
2022-08-31T03:56:22.294Z,23.28
2022-08-31T03:58:50.812Z,23.28
2022-08-31T04:01:19.305Z,23.27
2022-08-31T04:03:47.755Z,23.28
2022-08-31T04:06:16.140Z,23.28
2022-08-31T04:08:44.598Z,23.28
2022-08-31T04:11:18.434Z,23.27
2022-08-31T04:13:54.373Z,23.27
2022-08-31T04:16:24.859Z,23.26
2022-08-31T04:18:54.305Z,23.28
2022-08-31T04:21:26.401Z,23.27
2022-08-31T04:23:55.905Z,23.28
2022-08-31T04:26:29.062Z,23.26
2022-08-31T04:28:57.864Z,23.27
2022-08-31T04:31:29.676Z,23.28
2022-08-31T04:34:00.306Z,23.30
2022-08-31T04:36:30.158Z,23.32
2022-08-31T04:39:02.803Z,23.32
2022-08-31T04:41:36.336Z,23.32
2022-08-31T04:44:05.871Z,23.36
2022-08-31T04:46:36.735Z,23.37
2022-08-31T04:49:07.981Z,23.41
2022-08-31T04:51:37.606Z,23.42
2022-08-31T04:54:10.348Z,23.44
2022-08-31T04:56:43.584Z,23.47
2022-08-31T04:59:15.637Z,23.50
2022-08-31T05:01:47.916Z,23.52
2022-08-31T05:04:17.324Z,23.57
2022-08-31T05:06:47.907Z,23.64
2022-08-31T05:09:19.378Z,23.71
2022-08-31T05:11:50.189Z,23.78
2022-08-31T05:14:18.933Z,23.87
2022-08-31T05:16:47.637Z,23.96
2022-08-31T05:19:16.077Z,24.07
2022-08-31T05:21:45.533Z,24.17
2022-08-31T05:24:18.260Z,24.27
2022-08-31T05:26:51.060Z,24.37
2022-08-31T05:29:21.703Z,24.48
2022-08-31T05:31:52.614Z,24.62
2022-08-31T05:34:21.919Z,24.78
2022-08-31T05:36:54.019Z,24.94
2022-08-31T05:39:22.603Z,25.12
2022-08-31T05:41:55.556Z,25.27
2022-08-31T05:44:28.868Z,25.40
2022-08-31T05:47:03.884Z,25.56
2022-08-31T05:49:32.827Z,25.73
2022-08-31T05:52:01.832Z,25.88
2022-08-31T05:54:30.609Z,26.00
2022-08-31T05:57:01.130Z,26.13
2022-08-31T05:59:31.149Z,26.27
2022-08-31T06:02:00.094Z,26.39
2022-08-31T06:04:29.406Z,26.50
2022-08-31T06:06:58.343Z,26.58
2022-08-31T06:09:27.287Z,26.66
2022-08-31T06:11:55.687Z,26.73
2022-08-31T06:14:25.942Z,26.80
2022-08-31T06:16:56.693Z,26.83
2022-08-31T06:19:25.886Z,26.85
2022-08-31T06:21:54.609Z,26.91
2022-08-31T06:24:23.086Z,26.97
2022-08-31T06:26:59.668Z,27.04
2022-08-31T06:29:31.433Z,27.06
2022-08-31T06:32:00.671Z,27.06
2022-08-31T06:34:30.016Z,27.08
2022-08-31T06:36:58.407Z,27.11
2022-08-31T06:39:26.827Z,27.10
2022-08-31T06:41:56.015Z,27.07
2022-08-31T06:44:25.197Z,27.05
2022-08-31T06:46:55.229Z,27.02
2022-08-31T06:49:24.861Z,27.02
2022-08-31T06:51:53.289Z,27.04
2022-08-31T06:54:31.166Z,27.05
2022-08-31T06:57:00.360Z,27.07
2022-08-31T06:59:29.990Z,27.12
2022-08-31T07:02:02.153Z,27.15
2022-08-31T07:04:35.907Z,27.15
2022-08-31T07:07:06.487Z,27.17
2022-08-31T07:09:35.080Z,27.15
2022-08-31T07:12:05.091Z,27.16
2022-08-31T07:14:33.529Z,27.19
2022-08-31T07:17:04.620Z,27.21
2022-08-31T07:19:33.158Z,27.23
2022-08-31T07:22:05.439Z,27.28
2022-08-31T07:24:36.257Z,27.31
2022-08-31T07:27:10.249Z,27.37
2022-08-31T07:29:41.391Z,27.43
2022-08-31T07:32:13.955Z,27.51
2022-08-31T07:34:44.203Z,27.58
2022-08-31T07:37:30.408Z,27.65
2022-08-31T07:40:16.612Z,27.73
2022-08-31T07:42:48.355Z,27.83
2022-08-31T07:45:23.307Z,27.90
2022-08-31T07:47:56.450Z,27.95
2022-08-31T07:50:27.009Z,27.99
2022-08-31T07:52:58.505Z,28.01
2022-08-31T07:55:29.448Z,28.04
2022-08-31T07:57:58.416Z,28.08
2022-08-31T08:00:33.270Z,28.11
2022-08-31T08:03:08.370Z,28.16
2022-08-31T08:05:41.773Z,28.26
2022-08-31T08:08:13.967Z,28.34
2022-08-31T08:10:52.293Z,28.44
2022-08-31T08:13:22.646Z,28.52
2022-08-31T08:15:52.471Z,28.56
2022-08-31T08:18:23.105Z,28.60
2022-08-31T08:20:53.017Z,28.62
2022-08-31T08:23:28.014Z,28.72
2022-08-31T08:26:01.686Z,28.90
2022-08-31T08:28:40.786Z,29.05
2022-08-31T08:31:16.050Z,29.18
2022-08-31T08:33:46.901Z,29.35
2022-08-31T08:36:18.614Z,29.54
2022-08-31T08:38:50.569Z,29.72
2022-08-31T08:41:23.114Z,29.82
2022-08-31T08:43:57.246Z,29.90
2022-08-31T08:46:35.948Z,29.96
2022-08-31T08:49:19.017Z,30.09
2022-08-31T08:51:51.203Z,30.25
2022-08-31T08:54:32.008Z,30.36
2022-08-31T08:57:12.943Z,30.50
2022-08-31T08:59:43.266Z,30.70
2022-08-31T09:02:17.354Z,30.79
2022-08-31T09:05:09.113Z,30.85
2022-08-31T09:08:11.575Z,30.92
2022-08-31T09:10:46.774Z,31.06
2022-08-31T09:13:31.886Z,31.13
2022-08-31T09:16:20.689Z,31.15
2022-08-31T09:18:55.100Z,31.18
2022-08-31T09:21:28.975Z,31.20
2022-08-31T09:24:03.664Z,31.18
2022-08-31T09:26:35.737Z,31.18
2022-08-31T09:29:05.125Z,31.15
2022-08-31T09:31:38.425Z,31.15
2022-08-31T09:34:13.955Z,31.23
2022-08-31T09:36:43.933Z,31.37
2022-08-31T09:39:19.689Z,31.52
2022-08-31T09:41:50.212Z,31.68
2022-08-31T09:44:32.617Z,31.82
2022-08-31T09:47:05.406Z,32.04
2022-08-31T09:49:37.750Z,32.28
2022-08-31T09:52:45.974Z,32.51
2022-08-31T09:55:21.576Z,32.75
2022-08-31T09:57:59.133Z,32.95
2022-08-31T10:00:39.891Z,33.15
2022-08-31T10:03:20.925Z,33.40
2022-08-31T10:05:52.511Z,33.64
2022-08-31T10:08:41.087Z,33.77
2022-08-31T10:11:17.580Z,33.87
2022-08-31T10:13:57.282Z,33.96
2022-08-31T10:16:34.791Z,34.02
2022-08-31T10:19:07.769Z,34.03
2022-08-31T10:21:52.367Z,34.03
2022-08-31T10:24:33.344Z,34.04
2022-08-31T10:27:17.325Z,33.98
2022-08-31T10:29:56.242Z,33.92
2022-08-31T10:32:38.659Z,33.93
2022-08-31T10:35:15.037Z,33.96
2022-08-31T10:37:58.031Z,33.90
2022-08-31T10:40:32.636Z,33.89
2022-08-31T10:43:17.054Z,33.83
2022-08-31T10:45:51.135Z,33.81
2022-08-31T10:48:22.294Z,33.88
2022-08-31T10:51:05.968Z,33.88
2022-08-31T10:53:51.936Z,33.85
2022-08-31T10:56:37.365Z,33.88
2022-08-31T10:59:20.347Z,33.90
2022-08-31T11:02:00.749Z,33.94
2022-08-31T11:04:58.501Z,33.86
2022-08-31T11:07:46.004Z,33.79
2022-08-31T11:10:28.491Z,33.75
2022-08-31T11:13:02.551Z,33.77
2022-08-31T11:15:58.378Z,33.78
2022-08-31T11:19:11.698Z,33.88
2022-08-31T11:22:21.396Z,33.98
2022-08-31T11:25:25.086Z,34.12
2022-08-31T11:28:01.605Z,34.41
2022-08-31T11:30:33.568Z,34.66
2022-08-31T11:33:07.704Z,34.89
2022-08-31T11:36:06.393Z,35.01
2022-08-31T11:38:54.783Z,35.16
2022-08-31T11:41:46.854Z,35.22
2022-08-31T11:45:03.226Z,35.23
2022-08-31T11:47:44.360Z,35.34
2022-08-31T11:50:54.188Z,35.31
2022-08-31T11:53:35.018Z,35.25
2022-08-31T11:56:05.226Z,35.24
2022-08-31T11:58:39.445Z,35.24
2022-08-31T12:01:36.634Z,35.29
2022-08-31T12:04:06.587Z,35.33
2022-08-31T12:07:09.337Z,35.17
2022-08-31T12:10:19.242Z,35.00
2022-08-31T12:13:05.566Z,34.83
2022-08-31T12:16:02.027Z,34.63
2022-08-31T12:18:52.091Z,34.40
2022-08-31T12:21:47.600Z,34.16
2022-08-31T12:24:34.165Z,33.88
2022-08-31T12:27:27.435Z,33.67
2022-08-31T12:30:22.754Z,33.52
2022-08-31T12:33:01.169Z,33.50
2022-08-31T12:35:34.180Z,33.44
2022-08-31T12:38:07.180Z,33.39
2022-08-31T12:40:42.314Z,33.41
2022-08-31T12:43:18.244Z,33.41
2022-08-31T12:46:21.712Z,33.35
2022-08-31T12:49:21.843Z,33.29
2022-08-31T12:51:57.127Z,33.21
2022-08-31T12:55:09.450Z,33.02
2022-08-31T12:57:50.903Z,32.93
2022-08-31T13:00:28.159Z,32.80
2022-08-31T13:03:00.986Z,32.65
2022-08-31T13:05:33.543Z,32.47
2022-08-31T13:08:21.032Z,32.29
2022-08-31T13:10:49.529Z,32.19
2022-08-31T13:13:25.612Z,32.06
2022-08-31T13:16:04.662Z,31.88
2022-08-31T13:18:33.733Z,31.77
2022-08-31T13:21:05.997Z,31.63
2022-08-31T13:23:39.662Z,31.51
2022-08-31T13:26:20.167Z,31.39
2022-08-31T13:28:54.940Z,31.24
2022-08-31T13:31:28.251Z,31.15
2022-08-31T13:34:01.221Z,31.02
2022-08-31T13:36:34.488Z,30.91
2022-08-31T13:39:16.149Z,30.75
2022-08-31T13:41:57.634Z,30.58
2022-08-31T13:44:27.906Z,30.50
2022-08-31T13:47:02.095Z,30.39
2022-08-31T13:49:36.432Z,30.30
2022-08-31T13:52:08.271Z,30.25
2022-08-31T13:54:38.531Z,30.15
2022-08-31T13:57:20.725Z,30.03
2022-08-31T13:59:49.780Z,29.99
2022-08-31T14:02:36.960Z,29.88
2022-08-31T14:05:13.053Z,29.84
2022-08-31T14:07:57.260Z,29.73
2022-08-31T14:10:29.593Z,29.64
2022-08-31T14:13:01.369Z,29.56
2022-08-31T14:15:38.360Z,29.44
2022-08-31T14:18:24.989Z,29.35
2022-08-31T14:21:23.499Z,29.27
2022-08-31T14:24:01.356Z,29.24
2022-08-31T14:26:35.249Z,29.16
2022-08-31T14:29:10.717Z,29.10
2022-08-31T14:31:48.675Z,29.06
2022-08-31T14:34:28.304Z,29.01
2022-08-31T14:37:04.140Z,28.99
2022-08-31T14:39:36.884Z,28.95
2022-08-31T14:42:10.277Z,28.88
2022-08-31T14:44:41.803Z,28.81
2022-08-31T14:47:11.742Z,28.68
2022-08-31T14:49:45.582Z,28.57
2022-08-31T14:52:14.665Z,28.48
2022-08-31T14:54:43.620Z,28.41
2022-08-31T14:57:25.424Z,28.34
2022-08-31T14:59:57.684Z,28.32
2022-08-31T15:02:28.082Z,28.26
2022-08-31T15:04:58.997Z,28.24
2022-08-31T15:07:32.264Z,28.19
2022-08-31T15:10:01.048Z,28.14
2022-08-31T15:12:30.873Z,28.08
2022-08-31T15:15:00.048Z,28.02
2022-08-31T15:17:33.931Z,27.95
2022-08-31T15:20:03.447Z,27.89
2022-08-31T15:22:33.296Z,27.84
2022-08-31T15:25:02.690Z,27.80
2022-08-31T15:27:32.889Z,27.77
2022-08-31T15:30:07.905Z,27.76
2022-08-31T15:32:39.844Z,27.72
2022-08-31T15:35:13.914Z,27.71
2022-08-31T15:37:45.229Z,27.71
2022-08-31T15:40:19.017Z,27.67
2022-08-31T15:42:51.047Z,27.67
2022-08-31T15:45:20.149Z,27.66
2022-08-31T15:48:06.273Z,27.65
2022-08-31T15:50:36.347Z,27.59
2022-08-31T15:53:09.937Z,27.52
2022-08-31T15:55:40.978Z,27.44
2022-08-31T15:58:12.728Z,27.36
2022-08-31T16:00:42.317Z,27.30
2022-08-31T16:03:12.625Z,27.25
2022-08-31T16:05:43.666Z,27.17
2022-08-31T16:08:13.347Z,27.13
2022-08-31T16:10:48.514Z,27.05
2022-08-31T16:13:19.440Z,27.00
2022-08-31T16:15:52.649Z,26.94
2022-08-31T16:18:22.768Z,26.90
2022-08-31T16:20:52.064Z,26.82
2022-08-31T16:23:21.418Z,26.74
2022-08-31T16:25:49.963Z,26.66
2022-08-31T16:28:21.715Z,26.60
2022-08-31T16:30:52.031Z,26.53
2022-08-31T16:33:21.683Z,26.46
2022-08-31T16:35:51.022Z,26.39
2022-08-31T16:38:20.234Z,26.33
2022-08-31T16:40:50.263Z,26.24
2022-08-31T16:43:20.301Z,26.16
2022-08-31T16:45:49.069Z,26.09
2022-08-31T16:48:43.843Z,26.04
2022-08-31T16:51:15.176Z,25.98
2022-08-31T16:53:47.963Z,25.93
2022-08-31T16:56:16.929Z,25.85
2022-08-31T16:58:54.296Z,25.77
2022-08-31T17:01:26.300Z,25.68
2022-08-31T17:03:58.377Z,25.57
2022-08-31T17:06:29.335Z,25.44
2022-08-31T17:09:00.466Z,25.30
2022-08-31T17:11:32.430Z,25.16
2022-08-31T17:14:05.684Z,25.02
2022-08-31T17:16:37.572Z,24.91
2022-08-31T17:19:11.624Z,24.84
2022-08-31T17:21:49.777Z,24.79
2022-08-31T17:24:23.562Z,24.77
2022-08-31T17:26:54.031Z,24.74
2022-08-31T17:29:24.367Z,24.68
2022-08-31T17:31:56.298Z,24.64
2022-08-31T17:34:28.118Z,24.58
2022-08-31T17:37:00.448Z,24.54
2022-08-31T17:39:30.349Z,24.48
2022-08-31T17:41:59.262Z,24.46
2022-08-31T17:44:31.048Z,24.41
2022-08-31T17:47:01.797Z,24.39
2022-08-31T17:49:31.920Z,24.38
2022-08-31T17:52:08.974Z,24.36
2022-08-31T17:54:42.089Z,24.33
2022-08-31T17:57:13.777Z,24.31
2022-08-31T17:59:46.797Z,24.27
2022-08-31T18:02:19.125Z,24.25
2022-08-31T18:04:47.803Z,24.21
2022-08-31T18:07:16.659Z,24.16
2022-08-31T18:09:47.081Z,24.11
2022-08-31T18:12:17.015Z,24.05
2022-08-31T18:14:46.794Z,23.99
2022-08-31T18:17:17.260Z,23.93
2022-08-31T18:19:46.389Z,23.85
2022-08-31T18:22:15.802Z,23.79
2022-08-31T18:24:44.788Z,23.71
2022-08-31T18:27:15.664Z,23.65
2022-08-31T18:29:46.417Z,23.56
2022-08-31T18:32:16.218Z,23.50
2022-08-31T18:34:47.262Z,23.43
2022-08-31T18:37:22.283Z,23.38
2022-08-31T18:40:08.904Z,23.35
2022-08-31T18:42:57.018Z,23.29
2022-08-31T18:45:27.811Z,23.20
2022-08-31T18:50:49.767Z,23.14
2022-08-31T18:53:29.465Z,23.14
2022-08-31T18:56:08.687Z,23.09
2022-08-31T18:58:37.727Z,23.09
2022-08-31T19:01:11.605Z,23.05
2022-08-31T19:03:41.758Z,23.07
2022-08-31T19:06:16.812Z,23.05
2022-08-31T19:08:45.745Z,23.05
2022-08-31T19:11:14.861Z,23.04
2022-08-31T19:13:45.756Z,23.04
2022-08-31T19:16:19.897Z,22.99
2022-08-31T19:18:49.252Z,22.98
2022-08-31T19:21:21.574Z,22.95
2022-08-31T19:23:51.760Z,22.95
2022-08-31T19:26:23.688Z,22.92
2022-08-31T19:28:52.207Z,22.91
2022-08-31T19:31:24.382Z,22.90
2022-08-31T19:33:57.119Z,22.90
2022-08-31T19:36:27.694Z,22.93
2022-08-31T19:39:00.686Z,22.92
2022-08-31T19:41:30.617Z,22.94
2022-08-31T19:44:08.593Z,22.94
2022-08-31T19:46:41.662Z,22.96
2022-08-31T19:49:12.611Z,22.98
2022-08-31T19:51:43.990Z,23.02
2022-08-31T19:54:13.251Z,23.07
2022-08-31T19:56:45.037Z,23.11
2022-08-31T19:59:18.454Z,23.15
2022-08-31T20:01:52.974Z,23.18
2022-08-31T20:04:23.505Z,23.23
2022-08-31T20:06:52.540Z,23.26
2022-08-31T20:09:22.703Z,23.28
2022-08-31T20:11:53.337Z,23.32
2022-08-31T20:14:23.512Z,23.34
2022-08-31T20:16:54.951Z,23.35
2022-08-31T20:19:25.800Z,23.38
2022-08-31T20:21:56.219Z,23.41
2022-08-31T20:24:27.030Z,23.44
2022-08-31T20:27:01.700Z,23.47
2022-08-31T20:29:38.708Z,23.50
2022-08-31T20:32:09.314Z,23.54
2022-08-31T20:34:38.703Z,23.56
2022-08-31T20:37:07.702Z,23.60
2022-08-31T20:39:39.414Z,23.64
2022-08-31T20:42:08.342Z,23.66
2022-08-31T20:44:38.790Z,23.66
2022-08-31T20:47:30.441Z,23.67
2022-08-31T20:50:07.333Z,23.70
2022-08-31T20:52:36.553Z,23.73
2022-08-31T20:55:07.314Z,23.73
2022-08-31T20:57:40.421Z,23.74
2022-08-31T21:00:11.370Z,23.76
2022-08-31T21:02:41.265Z,23.77
2022-08-31T21:05:37.966Z,23.78
2022-08-31T21:08:02.541Z,23.80
2022-08-31T21:10:37.946Z,23.80
2022-08-31T21:13:09.534Z,23.79
2022-08-31T21:15:44.142Z,23.79
2022-08-31T21:18:17.715Z,23.79
2022-08-31T21:20:47.303Z,23.81
2022-08-31T21:23:15.924Z,23.81
2022-08-31T21:25:47.029Z,23.80
2022-08-31T21:28:18.322Z,23.78
2022-08-31T21:30:49.597Z,23.79
2022-08-31T21:33:20.172Z,23.77
2022-08-31T21:35:48.911Z,23.78
2022-08-31T21:38:20.986Z,23.76
2022-08-31T21:40:50.898Z,23.74
2022-08-31T21:43:20.146Z,23.73
2022-08-31T21:45:55.052Z,23.72
2022-08-31T21:48:25.997Z,23.71
2022-08-31T21:50:55.583Z,23.70
2022-08-31T21:53:25.786Z,23.71
2022-08-31T21:55:54.561Z,23.69
2022-08-31T21:58:23.350Z,23.68
2022-08-31T22:00:55.981Z,23.66
2022-08-31T22:03:35.799Z,23.63
2022-08-31T22:06:08.267Z,23.61
2022-08-31T22:08:37.785Z,23.63
2022-08-31T22:11:09.474Z,23.61
2022-08-31T22:13:38.493Z,23.60
2022-08-31T22:16:17.568Z,23.60
2022-08-31T22:19:02.790Z,23.59
2022-08-31T22:21:34.748Z,23.58
2022-08-31T22:24:07.396Z,23.59
2022-08-31T22:26:39.334Z,23.60
2022-08-31T22:29:10.788Z,23.60
2022-08-31T22:31:41.136Z,23.60
2022-08-31T22:34:12.974Z,23.58
2022-08-31T22:36:41.741Z,23.58
2022-08-31T22:39:14.634Z,23.56
2022-08-31T22:41:44.621Z,23.55
2022-08-31T22:44:19.201Z,23.51
2022-08-31T22:46:48.043Z,23.50
2022-08-31T22:49:18.491Z,23.47
2022-08-31T22:51:48.603Z,23.46
2022-08-31T22:54:19.662Z,23.43
2022-08-31T22:56:49.694Z,23.41
2022-08-31T22:59:27.085Z,23.40
2022-08-31T23:02:02.218Z,23.40
2022-08-31T23:04:35.623Z,23.38
2022-08-31T23:07:04.706Z,23.37
2022-08-31T23:09:34.499Z,23.33
2022-08-31T23:12:05.783Z,23.30
2022-08-31T23:14:34.409Z,23.30
2022-08-31T23:17:08.775Z,23.31
2022-08-31T23:19:43.717Z,23.29
2022-08-31T23:22:15.233Z,23.30
2022-08-31T23:24:47.451Z,23.30
2022-08-31T23:27:18.741Z,23.29
2022-08-31T23:29:51.574Z,23.27
2022-08-31T23:32:26.279Z,23.24
2022-08-31T23:34:58.468Z,23.19
2022-08-31T23:37:30.173Z,23.13
2022-08-31T23:40:00.641Z,23.06
2022-08-31T23:42:34.309Z,23.00
2022-08-31T23:45:03.456Z,22.97
2022-08-31T23:47:33.066Z,22.94
2022-08-31T23:50:05.073Z,22.92
2022-08-31T23:52:41.566Z,22.91
2022-08-31T23:55:12.476Z,22.90
2022-08-31T23:57:41.891Z,22.93
